createdAt,value
2022-08-17T00:00:42.926Z,12.40
2022-08-17T00:03:15.658Z,12.41
2022-08-17T00:05:48.662Z,12.30
2022-08-17T00:08:20.757Z,12.26
2022-08-17T00:10:54.172Z,12.18
2022-08-17T00:13:33.615Z,12.17
2022-08-17T00:16:07.566Z,12.10
2022-08-17T00:19:06.566Z,12.00
2022-08-17T00:21:27.331Z,11.97
2022-08-17T00:24:16.153Z,12.01
2022-08-17T00:26:45.559Z,12.03
2022-08-17T00:29:19.503Z,12.10
2022-08-17T00:31:50.026Z,11.99
2022-08-17T00:34:20.887Z,11.80
2022-08-17T00:36:49.342Z,11.79
2022-08-17T00:39:18.707Z,11.87
2022-08-17T00:41:48.460Z,11.77
2022-08-17T00:44:18.157Z,11.77
2022-08-17T00:46:50.453Z,11.75
2022-08-17T00:49:19.944Z,11.73
2022-08-17T00:51:52.572Z,11.82
2022-08-17T00:54:25.496Z,11.78
2022-08-17T00:56:56.927Z,11.88
2022-08-17T00:59:31.415Z,11.85
2022-08-17T01:02:04.261Z,11.76
2022-08-17T01:04:34.263Z,11.74
2022-08-17T01:07:06.027Z,11.75
2022-08-17T01:09:35.528Z,11.79
2022-08-17T01:12:10.533Z,11.76
2022-08-17T01:14:41.093Z,11.70
2022-08-17T01:17:12.596Z,11.72
2022-08-17T01:19:44.269Z,11.76
2022-08-17T01:22:22.694Z,11.84
2022-08-17T01:24:58.315Z,11.90
2022-08-17T01:27:28.904Z,11.87
2022-08-17T01:30:58.678Z,11.89
2022-08-17T01:33:11.554Z,11.80
2022-08-17T01:35:46.022Z,11.78
2022-08-17T01:38:17.273Z,11.90
2022-08-17T01:41:01.853Z,11.85
2022-08-17T01:43:36.115Z,11.92
2022-08-17T01:46:11.217Z,11.87
2022-08-17T01:48:40.528Z,11.86
2022-08-17T01:51:11.172Z,11.78
2022-08-17T01:53:57.841Z,11.62
2022-08-17T01:56:31.272Z,11.58
2022-08-17T01:59:01.144Z,11.53
2022-08-17T02:01:32.567Z,11.52
2022-08-17T02:04:01.903Z,11.38
2022-08-17T02:06:53.553Z,11.47
2022-08-17T02:09:32.788Z,11.42
2022-08-17T02:12:38.124Z,11.40
2022-08-17T02:14:56.821Z,11.39
2022-08-17T02:17:25.638Z,11.51
2022-08-17T02:19:54.249Z,11.57
2022-08-17T02:22:26.396Z,11.64
2022-08-17T02:25:02.092Z,11.61
2022-08-17T02:27:31.367Z,11.74
2022-08-17T02:30:03.177Z,11.80
2022-08-17T02:32:34.814Z,11.71
2022-08-17T02:35:06.252Z,11.75
2022-08-17T02:37:36.674Z,11.68
2022-08-17T02:40:09.559Z,11.61
2022-08-17T02:42:41.638Z,11.77
2022-08-17T02:45:13.297Z,11.77
2022-08-17T02:47:45.953Z,11.91
2022-08-17T02:50:30.200Z,11.82
2022-08-17T02:53:02.863Z,11.78
2022-08-17T02:55:38.543Z,11.78
2022-08-17T02:58:08.571Z,11.93
2022-08-17T03:00:41.666Z,11.96
2022-08-17T03:03:13.719Z,11.92
2022-08-17T03:05:43.267Z,11.93
2022-08-17T03:08:13.217Z,11.88
2022-08-17T03:10:45.664Z,11.82
2022-08-17T03:13:15.687Z,11.79
2022-08-17T03:15:49.848Z,11.72
2022-08-17T03:18:25.141Z,11.77
2022-08-17T03:21:04.625Z,11.72
2022-08-17T03:23:41.056Z,11.73
2022-08-17T03:26:15.515Z,11.72
2022-08-17T03:28:45.935Z,11.78
2022-08-17T03:31:14.660Z,11.71
2022-08-17T03:33:44.285Z,11.74
2022-08-17T03:36:12.840Z,11.77
2022-08-17T03:38:41.870Z,11.81
2022-08-17T03:41:11.974Z,11.76
2022-08-17T03:43:40.312Z,11.75
2022-08-17T03:46:32.494Z,11.73
2022-08-17T03:49:27.626Z,11.68
2022-08-17T03:52:24.301Z,11.68
2022-08-17T03:55:12.320Z,11.70
2022-08-17T03:57:42.924Z,11.72
2022-08-17T04:00:15.888Z,11.74
2022-08-17T04:02:56.896Z,11.61
2022-08-17T04:05:26.214Z,11.53
2022-08-17T04:08:14.115Z,11.52
2022-08-17T04:10:45.180Z,11.48
2022-08-17T04:13:24.063Z,11.51
2022-08-17T04:15:56.485Z,11.53
2022-08-17T04:18:26.574Z,11.56
2022-08-17T04:20:55.469Z,11.56
2022-08-17T04:23:28.553Z,11.56
2022-08-17T04:25:57.773Z,11.50
2022-08-17T04:28:27.824Z,11.53
2022-08-17T04:30:56.296Z,11.55
2022-08-17T04:33:28.185Z,11.48
2022-08-17T04:36:01.709Z,11.52
2022-08-17T04:38:32.501Z,11.51
2022-08-17T04:41:19.682Z,11.51
2022-08-17T04:43:55.262Z,11.41
2022-08-17T04:46:26.209Z,11.42
2022-08-17T04:48:58.761Z,11.40
2022-08-17T04:51:30.891Z,11.31
2022-08-17T04:54:02.181Z,11.40
2022-08-17T04:56:31.862Z,11.43
2022-08-17T04:59:07.134Z,11.42
2022-08-17T05:01:39.657Z,11.40
2022-08-17T05:04:33.258Z,11.40
2022-08-17T05:07:00.785Z,11.48
2022-08-17T05:09:29.341Z,11.49
2022-08-17T05:12:01.799Z,11.42
2022-08-17T05:14:32.951Z,11.36
2022-08-17T05:17:11.305Z,11.32
2022-08-17T05:19:40.375Z,11.29
2022-08-17T05:22:09.260Z,11.28
2022-08-17T05:24:43.587Z,11.31
2022-08-17T05:27:23.696Z,11.31
2022-08-17T05:29:55.093Z,11.32
2022-08-17T05:32:37.868Z,11.39
2022-08-17T05:35:10.897Z,11.52
2022-08-17T05:37:39.245Z,11.52
2022-08-17T05:40:10.909Z,11.55
2022-08-17T05:42:47.353Z,11.48
2022-08-17T05:45:55.887Z,11.56
2022-08-17T05:48:10.404Z,11.58
2022-08-17T05:50:51.068Z,11.62
2022-08-17T05:53:25.922Z,11.54
2022-08-17T05:56:13.109Z,11.58
2022-08-17T05:59:06.653Z,11.60
2022-08-17T06:01:45.537Z,11.58
2022-08-17T06:04:21.623Z,11.53
2022-08-17T06:06:57.388Z,11.50
2022-08-17T06:09:41.281Z,11.44
2022-08-17T06:12:30.405Z,11.52
2022-08-17T06:15:13.063Z,11.54
2022-08-17T06:17:45.019Z,11.49
2022-08-17T06:20:17.331Z,11.51
2022-08-17T06:22:51.177Z,11.44
2022-08-17T06:25:24.144Z,11.53
2022-08-17T06:27:57.665Z,11.58
2022-08-17T06:30:41.362Z,11.62
2022-08-17T06:33:27.801Z,11.68
2022-08-17T06:36:09.554Z,11.75
2022-08-17T06:38:48.230Z,11.81
2022-08-17T06:41:23.870Z,11.87
2022-08-17T06:44:04.568Z,11.90
2022-08-17T06:46:40.213Z,11.88
2022-08-17T06:49:21.941Z,11.88
2022-08-17T06:51:53.874Z,11.97
2022-08-17T06:54:33.097Z,11.92
2022-08-17T06:57:14.951Z,11.98
2022-08-17T06:59:54.814Z,12.06
2022-08-17T07:02:52.884Z,12.19
2022-08-17T07:05:31.952Z,12.20
2022-08-17T07:08:06.833Z,12.22
2022-08-17T07:10:44.461Z,12.20
2022-08-17T07:13:29.707Z,12.23
2022-08-17T07:16:08.800Z,12.24
2022-08-17T07:18:43.922Z,12.30
2022-08-17T07:21:27.744Z,12.31
2022-08-17T07:24:29.767Z,12.35
2022-08-17T07:27:15.903Z,12.46
2022-08-17T07:29:51.512Z,12.58
2022-08-17T07:32:25.050Z,12.61
2022-08-17T07:35:16.987Z,12.67
2022-08-17T07:37:51.194Z,12.78
2022-08-17T07:40:26.624Z,12.86
2022-08-17T07:43:22.022Z,12.88
2022-08-17T07:46:24.468Z,12.97
2022-08-17T07:48:55.978Z,13.07
2022-08-17T07:51:29.793Z,13.09
2022-08-17T07:54:13.960Z,13.14
2022-08-17T07:56:46.357Z,13.08
2022-08-17T07:59:23.073Z,13.09
2022-08-17T08:02:19.159Z,13.12
2022-08-17T08:05:06.815Z,13.19
2022-08-17T08:07:53.179Z,13.20
2022-08-17T08:10:32.725Z,13.23
2022-08-17T08:13:14.650Z,13.29
2022-08-17T08:15:56.145Z,13.33
2022-08-17T08:18:53.788Z,13.38
2022-08-17T08:21:30.513Z,13.42
2022-08-17T08:24:12.135Z,13.43
2022-08-17T08:26:55.844Z,13.52
2022-08-17T08:29:33.234Z,13.64
2022-08-17T08:32:13.592Z,13.65
2022-08-17T08:35:01.490Z,13.74
2022-08-17T08:37:43.927Z,13.74
2022-08-17T08:40:29.990Z,13.83
2022-08-17T08:43:08.583Z,13.91
2022-08-17T08:45:47.961Z,13.90
2022-08-17T08:48:53.786Z,13.90
2022-08-17T08:51:37.287Z,14.01
2022-08-17T08:54:26.602Z,14.08
2022-08-17T08:57:30.970Z,14.17
2022-08-17T09:00:04.023Z,14.22
2022-08-17T09:02:48.460Z,14.22
2022-08-17T09:05:30.982Z,14.32
2022-08-17T09:08:07.874Z,14.32
2022-08-17T09:10:57.013Z,14.40
2022-08-17T09:13:39.030Z,14.42
2022-08-17T09:16:17.280Z,14.45
2022-08-17T09:19:02.629Z,14.40
2022-08-17T09:21:47.988Z,14.49
2022-08-17T09:24:26.005Z,14.36
2022-08-17T09:27:00.406Z,14.20
2022-08-17T09:29:35.512Z,14.21
2022-08-17T09:32:14.344Z,14.18
2022-08-17T09:34:49.587Z,14.11
2022-08-17T09:37:25.156Z,14.10
2022-08-17T09:40:06.081Z,14.09
2022-08-17T09:42:44.120Z,14.24
2022-08-17T09:45:28.020Z,14.22
2022-08-17T09:48:07.600Z,14.31
2022-08-17T09:51:04.929Z,14.30
2022-08-17T09:53:33.600Z,14.26
2022-08-17T09:56:20.107Z,14.28
2022-08-17T09:59:11.390Z,14.28
2022-08-17T10:01:45.413Z,14.33
2022-08-17T10:04:38.027Z,14.42
2022-08-17T10:07:16.473Z,14.48
2022-08-17T10:10:01.129Z,14.55
2022-08-17T10:12:43.166Z,14.57
2022-08-17T10:15:40.820Z,14.56
2022-08-17T10:18:35.623Z,14.52
2022-08-17T10:21:27.215Z,14.36
2022-08-17T10:24:22.306Z,14.40
2022-08-17T10:26:56.713Z,14.56
2022-08-17T10:29:40.820Z,14.60
2022-08-17T10:32:32.914Z,14.61
2022-08-17T10:35:19.520Z,14.66
2022-08-17T10:38:09.662Z,14.75
2022-08-17T10:40:48.221Z,14.90
2022-08-17T10:43:29.676Z,14.98
2022-08-17T10:46:29.927Z,15.09
2022-08-17T10:49:26.689Z,15.35
2022-08-17T10:51:58.589Z,15.47
2022-08-17T10:54:50.012Z,15.67
2022-08-17T10:57:39.304Z,15.63
2022-08-17T11:00:15.058Z,15.86
2022-08-17T11:02:51.726Z,16.07
2022-08-17T11:05:44.203Z,16.33
2022-08-17T11:08:38.581Z,16.30
2022-08-17T11:11:36.217Z,16.17
2022-08-17T11:14:41.452Z,16.11
2022-08-17T11:17:22.327Z,15.86
2022-08-17T11:20:09.790Z,15.85
2022-08-17T11:23:11.906Z,15.73
2022-08-17T11:25:43.895Z,15.91
2022-08-17T11:28:20.125Z,16.16
2022-08-17T11:30:53.217Z,16.27
2022-08-17T11:33:55.488Z,16.52
2022-08-17T11:36:47.637Z,16.52
2022-08-17T11:39:30.695Z,16.66
2022-08-17T11:42:06.674Z,16.85
2022-08-17T11:44:53.550Z,16.93
2022-08-17T11:48:09.367Z,17.05
2022-08-17T11:51:18.140Z,17.05
2022-08-17T11:54:32.424Z,17.21
2022-08-17T11:57:03.626Z,17.42
2022-08-17T12:00:01.899Z,18.05
2022-08-17T12:02:47.383Z,18.61
2022-08-17T12:05:33.540Z,18.64
2022-08-17T12:08:18.068Z,18.46
2022-08-17T12:11:03.754Z,18.46
2022-08-17T12:13:39.429Z,18.12
2022-08-17T12:16:15.282Z,17.92
2022-08-17T12:18:51.341Z,17.84
2022-08-17T12:21:50.709Z,17.81
2022-08-17T12:24:33.211Z,17.90
2022-08-17T12:27:04.689Z,18.14
2022-08-17T12:29:38.613Z,18.36
2022-08-17T12:32:18.051Z,18.68
2022-08-17T12:34:49.341Z,18.79
2022-08-17T12:37:21.602Z,18.84
2022-08-17T12:39:55.473Z,19.00
2022-08-17T12:42:27.772Z,18.82
2022-08-17T12:44:57.134Z,18.56
2022-08-17T12:47:31.742Z,18.64
2022-08-17T12:50:28.181Z,18.71
2022-08-17T12:53:02.283Z,18.38
2022-08-17T12:55:37.577Z,18.20
2022-08-17T12:58:08.118Z,17.91
2022-08-17T13:00:47.480Z,17.86
2022-08-17T13:03:21.283Z,17.82
2022-08-17T13:06:02.937Z,17.88
2022-08-17T13:08:35.684Z,17.93
2022-08-17T13:11:10.317Z,17.97
2022-08-17T13:13:43.124Z,17.96
2022-08-17T13:16:20.573Z,18.09
2022-08-17T13:18:54.067Z,18.24
2022-08-17T13:21:30.637Z,18.38
2022-08-17T13:24:03.071Z,18.49
2022-08-17T13:26:37.048Z,18.52
2022-08-17T13:29:09.157Z,18.30
2022-08-17T13:31:52.328Z,18.36
2022-08-17T13:35:01.652Z,18.19
2022-08-17T13:37:35.557Z,18.15
2022-08-17T13:40:33.205Z,18.13
2022-08-17T13:43:03.690Z,18.08
2022-08-17T13:45:51.879Z,18.06
2022-08-17T13:48:31.544Z,17.97
2022-08-17T13:51:15.637Z,17.80
2022-08-17T13:54:06.970Z,17.60
2022-08-17T13:56:54.905Z,17.51
2022-08-17T13:59:53.463Z,17.44
2022-08-17T14:02:23.248Z,17.48
2022-08-17T14:04:56.286Z,17.50
2022-08-17T14:07:33.883Z,17.45
2022-08-17T14:10:06.815Z,17.50
2022-08-17T14:12:37.471Z,17.51
2022-08-17T14:15:06.851Z,17.55
2022-08-17T14:17:38.869Z,17.59
2022-08-17T14:23:54.985Z,17.78
2022-08-17T14:34:24.253Z,18.09
2022-08-17T14:36:58.921Z,18.31
2022-08-17T14:43:09.509Z,18.25
2022-08-17T14:49:20.963Z,18.18
2022-08-17T14:55:29.986Z,18.48
2022-08-17T15:01:40.236Z,18.83
2022-08-17T15:07:49.380Z,19.15
2022-08-17T15:13:58.696Z,19.77
2022-08-17T15:20:36.015Z,21.99
2022-08-17T15:23:14.282Z,22.28
2022-08-17T15:25:44.112Z,21.51
2022-08-17T15:28:30.273Z,22.39
2022-08-17T15:30:59.796Z,23.32
2022-08-17T15:33:34.464Z,24.67
2022-08-17T15:36:35.492Z,25.42
2022-08-17T15:39:41.710Z,25.21
2022-08-17T15:42:15.005Z,25.38
2022-08-17T15:45:08.746Z,25.59
2022-08-17T15:47:38.543Z,27.11
2022-08-17T15:50:10.150Z,26.83
2022-08-17T15:52:43.306Z,26.42
2022-08-17T15:55:15.633Z,27.07
2022-08-17T15:57:44.278Z,27.38
2022-08-17T16:00:13.416Z,27.21
2022-08-17T16:03:46.050Z,27.40
2022-08-17T16:05:32.460Z,27.48
2022-08-17T16:08:02.907Z,27.78
2022-08-17T16:10:34.542Z,27.82
2022-08-17T16:13:05.029Z,28.03
2022-08-17T16:15:40.372Z,25.68
2022-08-17T16:18:09.083Z,23.55
2022-08-17T16:20:44.493Z,23.03
2022-08-17T16:23:20.089Z,22.54
2022-08-17T16:25:53.005Z,24.16
2022-08-17T16:28:36.620Z,23.57
2022-08-17T16:31:08.029Z,22.26
2022-08-17T16:33:39.771Z,21.62
2022-08-17T16:36:10.434Z,21.19
2022-08-17T16:38:41.817Z,20.82
2022-08-17T16:41:11.585Z,20.57
2022-08-17T16:43:40.157Z,20.53
2022-08-17T16:46:11.752Z,20.12
2022-08-17T16:48:47.140Z,19.80
2022-08-17T16:51:16.658Z,19.55
2022-08-17T16:53:46.990Z,19.38
2022-08-17T16:56:32.775Z,19.05
2022-08-17T16:59:07.240Z,18.94
2022-08-17T17:01:45.790Z,18.84
2022-08-17T17:04:20.742Z,18.66
2022-08-17T17:07:01.917Z,18.64
2022-08-17T17:09:49.884Z,18.72
2022-08-17T17:12:34.929Z,18.77
2022-08-17T17:15:12.241Z,18.51
2022-08-17T17:17:48.254Z,18.58
2022-08-17T17:20:21.926Z,18.47
2022-08-17T17:22:58.151Z,18.39
2022-08-17T17:25:33.223Z,18.48
2022-08-17T17:28:25.101Z,18.28
2022-08-17T17:31:05.732Z,18.71
2022-08-17T17:33:40.919Z,19.02
2022-08-17T17:36:26.744Z,18.83
2022-08-17T17:39:01.673Z,18.80
2022-08-17T17:41:43.073Z,18.84
2022-08-17T17:44:17.873Z,18.79
2022-08-17T17:46:52.987Z,18.72
2022-08-17T17:49:23.707Z,18.45
2022-08-17T17:52:10.975Z,18.49
2022-08-17T17:54:52.800Z,18.39
2022-08-17T17:57:33.799Z,18.22
2022-08-17T18:00:08.810Z,18.13
2022-08-17T18:03:01.770Z,17.98
2022-08-17T18:05:48.096Z,17.73
2022-08-17T18:08:34.888Z,17.59
2022-08-17T18:11:24.575Z,17.60
2022-08-17T18:14:14.648Z,17.54
2022-08-17T18:16:46.309Z,17.64
2022-08-17T18:19:25.871Z,17.56
2022-08-17T18:22:06.807Z,17.35
2022-08-17T18:24:42.504Z,17.20
2022-08-17T18:27:24.756Z,16.96
2022-08-17T18:29:57.154Z,16.99
2022-08-17T18:32:36.525Z,17.01
2022-08-17T18:35:35.321Z,16.92
2022-08-17T18:38:24.286Z,16.89
2022-08-17T18:41:02.933Z,16.76
2022-08-17T18:43:43.820Z,16.85
2022-08-17T18:46:30.057Z,16.81
2022-08-17T18:49:01.871Z,16.81
2022-08-17T18:51:42.426Z,16.74
2022-08-17T18:54:21.571Z,16.63
2022-08-17T18:56:56.257Z,16.61
2022-08-17T18:59:29.998Z,16.61
2022-08-17T19:02:34.623Z,16.66
2022-08-17T19:05:13.713Z,16.67
2022-08-17T19:07:44.395Z,16.69
2022-08-17T19:10:20.890Z,16.80
2022-08-17T19:12:54.297Z,16.81
2022-08-17T19:15:34.931Z,16.73
2022-08-17T19:18:15.326Z,16.64
2022-08-17T19:20:49.097Z,16.67
2022-08-17T19:23:25.126Z,16.69
2022-08-17T19:25:59.259Z,16.59
2022-08-17T19:28:34.924Z,16.64
2022-08-17T19:31:11.253Z,16.55
2022-08-17T19:33:41.989Z,16.49
2022-08-17T19:36:34.666Z,16.44
2022-08-17T19:39:12.621Z,16.32
2022-08-17T19:41:52.516Z,16.26
2022-08-17T19:44:37.950Z,16.30
2022-08-17T19:47:36.454Z,16.33
2022-08-17T19:50:15.577Z,16.40
2022-08-17T19:52:54.841Z,16.41
2022-08-17T19:55:32.285Z,16.38
2022-08-17T19:58:10.575Z,16.28
2022-08-17T20:00:48.361Z,16.31
2022-08-17T20:03:23.347Z,16.24
2022-08-17T20:06:15.045Z,16.23
2022-08-17T20:09:00.689Z,16.32
2022-08-17T20:11:43.198Z,16.34
2022-08-17T20:14:16.405Z,16.35
2022-08-17T20:16:48.676Z,16.39
2022-08-17T20:19:25.200Z,16.40
2022-08-17T20:22:00.566Z,16.40
2022-08-17T20:24:36.309Z,16.33
2022-08-17T20:27:15.969Z,16.32
2022-08-17T20:30:01.521Z,16.37
2022-08-17T20:32:33.357Z,16.39
2022-08-17T20:35:09.467Z,16.36
2022-08-17T20:37:45.208Z,16.36
2022-08-17T20:40:35.338Z,16.32
2022-08-17T20:43:37.313Z,16.24
2022-08-17T20:46:18.365Z,16.26
2022-08-17T20:48:50.140Z,16.29
2022-08-17T20:51:28.786Z,16.29
2022-08-17T20:54:39.073Z,16.23
2022-08-17T20:57:14.402Z,16.23
2022-08-17T21:00:14.392Z,16.23
2022-08-17T21:02:45.149Z,16.29
2022-08-17T21:05:38.852Z,16.34
2022-08-17T21:08:16.429Z,16.36
2022-08-17T21:10:49.689Z,16.40
2022-08-17T21:14:05.234Z,16.39
2022-08-17T21:16:50.558Z,16.37
2022-08-17T21:20:00.183Z,16.37
2022-08-17T21:22:35.504Z,16.36
2022-08-17T21:25:17.876Z,16.31
2022-08-17T21:27:58.852Z,16.24
2022-08-17T21:30:57.227Z,16.23
2022-08-17T21:33:31.744Z,16.27
2022-08-17T21:36:27.002Z,16.26
2022-08-17T21:39:09.039Z,16.22
2022-08-17T21:41:53.120Z,16.13
2022-08-17T21:44:32.265Z,16.04
2022-08-17T21:47:20.461Z,15.94
2022-08-17T21:49:50.060Z,15.88
2022-08-17T21:52:21.964Z,15.85
2022-08-17T21:54:53.532Z,15.82
2022-08-17T21:57:52.771Z,15.81
2022-08-17T22:00:34.451Z,15.73
2022-08-17T22:03:09.917Z,15.72
2022-08-17T22:05:41.749Z,15.74
2022-08-17T22:08:20.528Z,15.81
2022-08-17T22:10:51.462Z,15.75
2022-08-17T22:13:24.748Z,15.75
2022-08-17T22:16:15.541Z,15.80
2022-08-17T22:19:00.149Z,15.79
2022-08-17T22:21:36.879Z,15.77
2022-08-17T22:24:07.420Z,15.86
2022-08-17T22:27:11.374Z,15.86
2022-08-17T22:29:56.922Z,15.86
2022-08-17T22:32:42.019Z,15.84
2022-08-17T22:35:34.821Z,15.83
2022-08-17T22:38:34.338Z,15.80
2022-08-17T22:41:48.365Z,15.80
2022-08-17T22:44:32.040Z,15.77
2022-08-17T22:47:11.450Z,15.78
2022-08-17T22:49:53.022Z,15.79
2022-08-17T22:52:33.820Z,15.76
2022-08-17T22:55:32.483Z,15.77
2022-08-17T22:58:20.359Z,15.81
2022-08-17T23:00:51.276Z,15.78
2022-08-17T23:03:25.287Z,15.80
2022-08-17T23:06:06.527Z,15.87
2022-08-17T23:08:48.478Z,15.91
2022-08-17T23:11:36.797Z,15.95
2022-08-17T23:14:19.701Z,15.90
2022-08-17T23:16:52.621Z,15.97
2022-08-17T23:19:22.773Z,15.96
2022-08-17T23:21:55.537Z,16.00
2022-08-17T23:24:28.186Z,15.98
2022-08-17T23:26:59.527Z,15.97
2022-08-17T23:29:29.662Z,15.95
2022-08-17T23:32:01.688Z,15.92
2022-08-17T23:34:33.025Z,15.87
2022-08-17T23:37:02.890Z,15.88
2022-08-17T23:39:33.133Z,15.84
2022-08-17T23:42:08.288Z,15.81
2022-08-17T23:44:39.733Z,15.87
2022-08-17T23:47:09.774Z,15.86
2022-08-17T23:49:39.280Z,15.87
2022-08-17T23:52:14.952Z,15.91
2022-08-17T23:54:49.430Z,15.94
2022-08-17T23:57:33.123Z,15.93
